カイロ の空港の天気 - METARとTAF

カイロ国際空港 ( HECA / CAI ) - エジプト [カイロ
飛行場実況気象(Metar)
観測時間07/29 05:30 EET (07/29 03:30 UTC)
風向・風速西 3m/s
視程4000m
天気現象もや
なし
気温26℃
湿度84%
気圧1007hPa
METARHECA 290330Z 27005KT 4000 BR NSC 26/23 Q1007 NOSIG
過去の天気等 Google飛行場航空写真 Wunderground天気予報

過去48時間のMETAR

飛行場予報(TAF)
発表時間: 7/29 01:00 EET (7/28 23:00 UTC)
予報対象時間: 29日2時 EET ~ 30日8時 EET
風向・風速北西 4m/s
視程10km以上
なし
29日2時 EET ~ 29日8時 EET に一時的に
風向・風速不定 2m/s
視程4000m
天気現象もや
なし
TAF HECA 282300Z 2900/3006 32007KT CAVOK
TEMPO 2900/2906 VRB03KT 4000 BR NSC